Time;durP1;ratioP1;P1;durP2;ratioP2;P2;SDS_P1;SDS_P2;PMS_P1;PMS_P2;Temp;Humidity;BMP_temperature;BMP_pressure;BME280_temperature;BME280_humidity;BME280_pressure;Samples;Min_cycle;Max_cycle;Signal;HPM_P1;HPM_P2
2021/01/11 00:01:26;;;;;;;51.95;33.02;;;;;;;1.51;72.89;101598.75;1828667;77;21388;-75
2021/01/11 00:03:54;;;;;;;56.98;33.53;;;;;;;1.50;72.75;101597.05;1828643;77;20972;-74
2021/01/11 00:06:21;;;;;;;51.37;32.65;;;;;;;1.47;72.49;101597.08;1828594;77;20957;-74
2021/01/11 00:08:50;;;;;;;54.25;32.42;;;;;;;1.44;72.53;101597.08;1828587;77;20961;-77
2021/01/11 00:11:23;;;;;;;47.70;30.85;;;;;;;1.37;72.59;101601.87;1828491;77;20958;-72
2021/01/11 00:13:52;;;;;;;51.63;29.77;;;;;;;1.35;72.58;101580.34;1859723;77;20922;-73
2021/01/11 00:16:20;;;;;;;47.27;28.90;;;;;;;1.29;72.59;101573.50;1828557;77;21081;-72
2021/01/11 00:18:49;;;;;;;49.80;31.25;;;;;;;1.22;72.77;101580.84;1828190;77;20947;-75
2021/01/11 00:21:19;;;;;;;54.27;33.08;;;;;;;1.17;72.79;101584.75;1828666;77;20978;-76
2021/01/11 00:23:47;;;;;;;53.60;34.05;;;;;;;1.13;72.84;101592.52;1828599;77;21009;-74
2021/01/11 00:26:15;;;;;;;52.03;32.42;;;;;;;1.10;72.82;101601.16;1828633;76;21009;-75
2021/01/11 00:28:44;;;;;;;51.15;31.05;;;;;;;1.05;72.83;101608.52;1828600;77;21160;-74
2021/01/11 00:31:12;;;;;;;55.73;32.53;;;;;;;0.99;72.87;101610.68;1828470;77;20961;-74
2021/01/11 00:33:40;;;;;;;58.92;34.78;;;;;;;0.91;73.02;101624.05;1828553;77;20915;-76
2021/01/11 00:36:11;;;;;;;52.95;32.45;;;;;;;0.83;73.26;101624.09;1828541;77;20954;-76
2021/01/11 00:38:41;;;;;;;60.75;35.60;;;;;;;0.81;73.48;101636.14;1859773;76;20918;-74
2021/01/11 00:41:18;;;;;;;53.68;31.77;;;;;;;0.80;73.70;101634.00;1828610;77;21169;-75
2021/01/11 00:43:48;;;;;;;53.68;31.10;;;;;;;0.81;73.82;101629.69;1828622;77;21020;-75
2021/01/11 00:46:29;;;;;;;58.80;33.78;;;;;;;0.82;73.94;101621.95;1828572;77;21001;-76
2021/01/11 00:48:58;;;;;;;49.70;30.45;;;;;;;0.87;73.98;101626.20;1828601;77;20958;-75
2021/01/11 00:51:30;;;;;;;60.75;33.05;;;;;;;0.91;73.89;101618.88;1828647;77;20986;-76
2021/01/11 00:54:00;;;;;;;69.62;36.58;;;;;;;0.93;73.74;101612.84;1828392;77;20995;-76
2021/01/11 00:56:33;;;;;;;59.88;34.45;;;;;;;0.91;73.63;101609.44;1828812;77;20972;-76
2021/01/11 00:59:03;;;;;;;59.97;33.30;;;;;;;0.80;73.83;101591.40;1801898;77;20957;-74
2021/01/11 01:01:32;;;;;;;62.38;35.13;;;;;;;0.80;73.83;101591.40;1828601;77;21826;-75
2021/01/11 01:04:02;;;;;;;61.13;34.45;;;;;;;0.79;73.57;101594.83;1828718;77;20953;-75
2021/01/11 01:06:31;;;;;;;61.25;32.50;;;;;;;0.74;73.72;101587.98;1828295;76;21096;-73
2021/01/11 01:08:59;;;;;;;57.70;31.45;;;;;;;0.71;73.82;101576.36;1828366;77;21313;-75
2021/01/11 01:11:27;;;;;;;60.15;34.45;;;;;;;0.69;73.83;101578.97;1827429;77;21080;-76
2021/01/11 01:13:56;;;;;;;62.75;32.03;;;;;;;0.68;73.68;101570.78;1823129;77;20993;-75
2021/01/11 01:16:27;;;;;;;61.53;34.67;;;;;;;0.63;73.65;101571.68;1823243;77;20938;-76
2021/01/11 01:18:55;;;;;;;53.98;31.62;;;;;;;0.55;73.76;101566.52;1823318;77;21611;-76
2021/01/11 01:21:22;;;;;;;57.70;33.25;;;;;;;0.48;73.91;101567.41;1822981;77;20949;-75
2021/01/11 01:23:50;;;;;;;56.40;34.75;;;;;;;0.43;74.04;101566.58;1823034;77;20941;-75
2021/01/11 01:26:18;;;;;;;63.10;33.42;;;;;;;0.39;74.09;101559.27;1823064;77;21017;-75
2021/01/11 01:28:48;;;;;;;55.80;31.17;;;;;;;0.34;74.39;101563.59;1821813;77;20946;-74
2021/01/11 01:31:16;;;;;;;56.35;33.75;;;;;;;0.31;74.33;101566.16;1823023;77;20981;-75
2021/01/11 01:33:45;;;;;;;59.60;34.58;;;;;;;0.31;74.14;101577.77;1853901;77;20966;-76
2021/01/11 01:36:13;;;;;;;63.10;34.10;;;;;;;0.26;74.03;101577.78;1823018;77;21033;-77
2021/01/11 01:38:41;;;;;;;59.40;32.78;;;;;;;0.20;74.04;101585.11;1823027;77;20942;-76
2021/01/11 01:41:09;;;;;;;67.85;34.15;;;;;;;0.18;73.86;101584.69;1854053;77;20871;-76
2021/01/11 01:43:37;;;;;;;72.03;36.98;;;;;;;0.14;73.87;101588.98;1823291;77;21852;-76
2021/01/11 01:46:06;;;;;;;72.08;39.70;;;;;;;0.09;73.94;101589.84;1823286;77;21005;-76
2021/01/11 01:48:34;;;;;;;71.22;41.25;;;;;;;0.05;74.09;101592.87;1823181;77;20958;-74
2021/01/11 01:51:02;;;;;;;72.50;39.80;;;;;;;-0.01;74.40;101600.16;1796665;77;21498;-76
2021/01/11 01:53:30;;;;;;;67.85;39.90;;;;;;;-0.05;74.61;101601.45;1823178;77;21524;-75
2021/01/11 01:55:57;;;;;;;66.95;38.33;;;;;;;-0.09;74.57;101600.62;1822988;77;21900;-75
2021/01/11 01:58:26;;;;;;;69.12;38.98;;;;;;;-0.16;74.65;101602.74;1822890;77;21394;-76
2021/01/11 02:00:54;;;;;;;77.58;40.12;;;;;;;-0.19;74.79;101599.32;1796925;77;20910;-76
2021/01/11 02:03:22;;;;;;;77.85;40.28;;;;;;;-0.22;75.10;101596.32;1796868;77;20994;-75
2021/01/11 02:05:51;;;;;;;72.40;41.55;;;;;;;-0.18;75.34;101603.61;1823269;77;21372;-75
2021/01/11 02:08:53;;;;;;;74.20;39.33;;;;;;;-0.17;75.43;101592.02;1823290;77;21195;-76
2021/01/11 02:11:50;;;;;;;66.47;36.38;;;;;;;-0.12;75.49;101592.86;1822912;77;20962;-77
2021/01/11 02:14:57;;;;;;;69.53;36.30;;;;;;;-0.07;75.68;101596.33;1823232;77;20961;-73
2021/01/11 02:17:33;;;;;;;54.55;31.17;;;;;;;0.01;75.62;101583.41;1822709;77;21016;-76
2021/01/11 02:20:19;;;;;;;60.90;32.75;;;;;;;0.08;75.45;101595.87;1823070;77;20949;-76
2021/01/11 02:23:14;;;;;;;53.05;29.67;;;;;;;0.11;75.25;101607.05;1823230;77;21029;-75
2021/01/11 02:25:45;;;;;;;55.95;30.68;;;;;;;0.12;75.05;101603.59;1854065;77;28064;-76
2021/01/11 02:28:24;;;;;;;57.20;30.92;;;;;;;0.08;74.94;101601.88;1823181;77;20946;-76
2021/01/11 02:30:52;;;;;;;49.38;29.80;;;;;;;0.09;74.86;101592.01;1822478;77;20942;-77
2021/01/11 02:33:20;;;;;;;53.73;30.57;;;;;;;0.07;74.83;101594.13;1823173;77;20894;-76
2021/01/11 02:36:06;;;;;;;55.50;31.73;;;;;;;0.08;74.77;101598.45;1823164;77;22101;-77
2021/01/11 02:38:37;;;;;;;62.83;34.20;;;;;;;0.04;74.75;101598.02;1822795;77;20978;-74
2021/01/11 02:41:05;;;;;;;53.75;31.17;;;;;;;-0.01;74.75;101616.92;1796858;77;20993;-75
2021/01/11 02:43:33;;;;;;;63.55;33.08;;;;;;;-0.04;75.07;101620.80;1823089;77;20954;-75
2021/01/11 02:46:02;;;;;;;55.65;31.52;;;;;;;-0.05;75.11;101627.23;1823095;77;20950;-76
2021/01/11 02:48:55;;;;;;;61.92;33.73;;;;;;;-0.06;75.24;101622.95;1823071;77;21007;-75
2021/01/11 02:51:41;;;;;;;66.55;35.78;;;;;;;-0.08;75.24;101616.50;1823007;77;20970;-75
2021/01/11 02:54:22;;;;;;;63.70;34.95;;;;;;;-0.09;75.11;101610.93;1823103;77;21395;-75
2021/01/11 02:57:00;;;;;;;71.65;35.78;;;;;;;-0.11;75.28;101606.20;1822918;77;20930;-75
2021/01/11 02:59:36;;;;;;;51.65;31.12;;;;;;;-0.12;75.17;101599.30;1822814;77;20977;-76
2021/01/11 03:02:07;;;;;;;56.60;34.85;;;;;;;-0.19;75.31;101587.28;1823015;77;22148;-75
2021/01/11 03:04:36;;;;;;;54.48;29.05;;;;;;;-0.20;75.55;101581.72;1822830;77;21018;-75
2021/01/11 03:07:07;;;;;;;54.10;32.75;;;;;;;-0.24;75.71;101574.84;1823051;77;20986;-75
2021/01/11 03:09:38;;;;;;;60.85;35.50;;;;;;;-0.26;75.72;101576.55;1822936;77;21068;-76
2021/01/11 03:12:08;;;;;;;61.42;33.75;;;;;;;-0.29;75.67;101571.38;1824391;77;21380;-76
2021/01/11 03:14:37;;;;;;;60.92;33.70;;;;;;;-0.33;75.72;101566.67;1859520;76;21359;-76
2021/01/11 03:17:06;;;;;;;62.73;33.85;;;;;;;-0.35;75.79;101566.25;1828480;77;20950;-76
2021/01/11 03:19:34;;;;;;;62.98;35.03;;;;;;;-0.39;75.83;101575.68;1828383;77;21061;-77
2021/01/11 03:22:03;;;;;;;67.60;36.98;;;;;;;-0.42;76.01;101590.72;1825031;77;20938;-76
2021/01/11 03:24:31;;;;;;;80.53;43.90;;;;;;;-0.42;76.24;101607.47;1822750;77;20938;-75
2021/01/11 03:27:00;;;;;;;83.55;43.42;;;;;;;-0.39;76.02;101610.91;1822870;77;22155;-76
2021/01/11 03:29:28;;;;;;;78.67;43.02;;;;;;;-0.43;75.76;101637.08;1822581;77;21001;-76
2021/01/11 03:31:56;;;;;;;75.70;38.25;;;;;;;-0.47;75.66;101637.52;1822836;77;20966;-75
2021/01/11 03:34:24;;;;;;;65.92;35.92;;;;;;;-0.49;75.78;101635.77;1822981;77;21516;-75
2021/01/11 03:36:52;;;;;;;63.80;37.55;;;;;;;-0.48;75.84;101628.50;1851379;77;20926;-75
2021/01/11 03:39:20;;;;;;;57.48;31.93;;;;;;;-0.48;75.89;101625.92;1822982;77;21529;-75
2021/01/11 03:41:48;;;;;;;56.33;32.08;;;;;;;-0.45;75.87;101612.59;1823095;77;21428;-76
2021/01/11 03:44:16;;;;;;;60.25;35.75;;;;;;;-0.43;75.96;101612.17;1823164;77;20954;-76
2021/01/11 03:46:44;;;;;;;60.28;33.98;;;;;;;-0.38;75.74;101616.03;1823605;77;20970;-74
2021/01/11 03:49:12;;;;;;;64.35;36.28;;;;;;;-0.40;75.76;101626.80;1826974;77;20985;-76
2021/01/11 03:51:40;;;;;;;65.57;36.48;;;;;;;-0.38;75.74;101622.48;1825391;77;21164;-74
2021/01/11 03:54:08;;;;;;;61.48;33.60;;;;;;;-0.37;75.65;101632.38;1823408;77;21013;-77
2021/01/11 03:56:36;;;;;;;58.68;35.13;;;;;;;-0.37;75.48;101628.08;1823056;77;20993;-77
2021/01/11 03:59:04;;;;;;;67.58;34.25;;;;;;;-0.39;75.53;101627.66;1823059;77;21268;-76
2021/01/11 04:01:37;;;;;;;53.13;33.55;;;;;;;-0.38;75.50;101630.65;1823149;77;20941;-76
2021/01/11 04:04:06;;;;;;;63.28;35.85;;;;;;;-0.38;75.51;101624.20;1823204;77;21164;-75
2021/01/11 04:06:34;;;;;;;61.05;37.35;;;;;;;-0.40;75.69;101638.39;1851584;77;20934;-77
2021/01/11 04:09:03;;;;;;;64.03;35.48;;;;;;;-0.40;75.75;101637.11;1823421;77;20938;-76
2021/01/11 04:11:30;;;;;;;65.30;36.17;;;;;;;-0.41;75.87;101643.10;1824584;77;21396;-75
2021/01/11 04:13:58;;;;;;;57.35;34.38;;;;;;;-0.38;75.91;101654.69;1816971;77;21029;-76
2021/01/11 04:16:26;;;;;;;57.23;33.35;;;;;;;-0.39;75.96;101638.81;1815901;77;21182;-75
2021/01/11 04:18:54;;;;;;;60.95;34.27;;;;;;;-0.37;76.05;101642.25;1816985;77;20978;-74
2021/01/11 04:21:22;;;;;;;64.90;36.60;;;;;;;-0.35;76.08;101637.11;1817245;77;20954;-72
2021/01/11 04:23:50;;;;;;;55.78;32.30;;;;;;;-0.32;76.11;101637.95;1816961;77;20907;-74
2021/01/11 04:26:19;;;;;;;52.90;31.77;;;;;;;-0.31;76.14;101631.97;1816522;77;21419;-76
2021/01/11 04:28:47;;;;;;;56.05;32.80;;;;;;;-0.27;76.04;101625.95;1814863;77;21160;-76
2021/01/11 04:31:16;;;;;;;54.45;32.45;;;;;;;-0.25;75.97;101622.07;1814791;77;21005;-75
2021/01/11 04:33:44;;;;;;;57.23;34.10;;;;;;;-0.22;75.78;101618.23;1814837;77;21491;-76
2021/01/11 04:36:11;;;;;;;57.58;34.03;;;;;;;-0.21;75.76;101607.05;1814882;77;20943;-77
2021/01/11 04:38:39;;;;;;;62.58;36.90;;;;;;;-0.17;75.77;101614.36;1814875;77;21010;-75
2021/01/11 04:41:07;;;;;;;67.53;40.17;;;;;;;-0.13;75.77;101625.96;1814774;77;21387;-76
2021/01/11 04:43:43;;;;;;;68.10;39.67;;;;;;;-0.12;75.75;101620.37;1814762;77;20997;-77
2021/01/11 04:46:13;;;;;;;62.00;39.92;;;;;;;-0.09;75.70;101623.81;1814897;77;21384;-76
2021/01/11 04:48:42;;;;;;;72.65;42.10;;;;;;;-0.06;75.68;101625.09;1789259;77;20949;-76
2021/01/11 04:51:10;;;;;;;64.97;37.80;;;;;;;0.01;75.60;101618.66;1815042;77;20946;-76
2021/01/11 04:53:42;;;;;;;67.17;39.85;;;;;;;0.08;75.47;101619.08;1814838;77;21152;-76
2021/01/11 04:56:11;;;;;;;63.45;37.93;;;;;;;0.09;75.45;101625.94;1814837;77;20943;-76
2021/01/11 04:59:00;;;;;;;57.85;36.45;;;;;;;0.11;75.48;101631.95;1814955;77;21002;-77
2021/01/11 05:01:28;;;;;;;62.48;37.45;;;;;;;0.15;75.43;101620.78;1789383;77;21002;-75
2021/01/11 05:04:01;;;;;;;63.55;37.20;;;;;;;0.18;75.37;101621.66;1814760;77;21423;-78
2021/01/11 05:06:29;;;;;;;59.93;37.53;;;;;;;0.24;75.26;101623.78;1814741;77;21018;-76
2021/01/11 05:09:05;;;;;;;59.58;37.88;;;;;;;0.27;75.21;101625.95;1814770;77;21470;-78
2021/01/11 05:11:34;;;;;;;64.67;37.35;;;;;;;0.31;75.11;101627.66;1814795;77;20899;-74
2021/01/11 05:14:02;;;;;;;60.63;36.75;;;;;;;0.34;75.01;101628.09;1821307;77;20930;-76
2021/01/11 05:16:31;;;;;;;64.47;37.48;;;;;;;0.38;74.93;101624.64;1822949;77;20918;-75
2021/01/11 05:19:25;;;;;;;77.42;41.18;;;;;;;0.41;74.92;101624.62;1822879;77;21075;-77
2021/01/11 05:21:53;;;;;;;64.00;39.23;;;;;;;0.46;74.86;101629.78;1823095;77;21105;-76
2021/01/11 05:24:35;;;;;;;66.42;41.15;;;;;;;0.48;74.83;101626.77;1823020;77;21084;-77
2021/01/11 05:27:10;;;;;;;64.62;37.48;;;;;;;0.49;74.77;101630.64;1822909;77;21565;-77
2021/01/11 05:29:38;;;;;;;;;;;;;;;0.52;74.54;101632.35;1823194;77;21029;-76
2021/01/11 05:32:08;;;;;;;58.38;36.28;;;;;;;0.50;74.43;101637.95;1822824;77;21030;-76
2021/01/11 05:34:50;;;;;;;60.52;38.55;;;;;;;0.51;74.39;101634.48;1822860;77;21009;-76
2021/01/11 05:37:38;;;;;;;60.30;34.53;;;;;;;0.53;74.29;101625.02;1822943;77;20950;-76
2021/01/11 05:40:14;;;;;;;61.08;34.65;;;;;;;0.55;74.15;101627.17;1822968;77;21009;-77
2021/01/11 05:42:45;;;;;;;52.27;30.82;;;;;;;0.53;74.11;101634.05;1822821;77;21092;-77
2021/01/11 05:45:28;;;;;;;73.85;42.35;;;;;;;0.53;74.11;101649.54;1797009;76;21152;-76
2021/01/11 05:48:09;;;;;;;74.37;40.15;;;;;;;0.53;74.12;101650.83;1822986;77;20990;-76
2021/01/11 05:50:47;;;;;;;71.55;41.08;;;;;;;0.50;74.20;101647.83;1822805;77;21535;-77
2021/01/11 05:53:20;;;;;;;58.92;35.65;;;;;;;0.52;74.28;101656.43;1822779;77;21033;-75
2021/01/11 05:55:50;;;;;;;64.00;37.05;;;;;;;0.53;74.39;101662.00;1822774;77;21013;-76
2021/01/11 05:58:22;;;;;;;65.70;38.13;;;;;;;0.56;74.34;101662.02;1822702;77;20982;-76
2021/01/11 06:00:50;;;;;;;57.78;35.85;;;;;;;0.59;74.35;101658.57;1822722;77;20950;-76
2021/01/11 06:03:19;;;;;;;59.93;35.70;;;;;;;0.65;74.31;101659.00;1822798;77;21033;-75
2021/01/11 06:05:47;;;;;;;53.63;31.90;;;;;;;0.68;74.25;101651.23;1822784;77;21455;-79
2021/01/11 06:08:15;;;;;;;48.28;29.70;;;;;;;0.72;74.18;101655.53;1822926;77;20941;-77
2021/01/11 06:10:47;;;;;;;61.48;34.38;;;;;;;0.75;74.03;101657.66;1823053;76;20987;-77
2021/01/11 06:13:14;;;;;;;63.90;33.80;;;;;;;0.77;74.06;101655.94;1848187;77;21416;-76
2021/01/11 06:15:42;;;;;;;56.55;32.70;;;;;;;0.80;74.10;101662.40;1814708;77;20939;-77
2021/01/11 06:18:12;;;;;;;53.38;31.35;;;;;;;0.82;74.09;101665.84;1811084;77;20958;-76
2021/01/11 06:20:44;;;;;;;51.90;31.10;;;;;;;0.85;73.96;101664.11;1814580;77;20899;-77
2021/01/11 06:23:27;;;;;;;57.25;31.70;;;;;;;0.87;73.98;101663.65;1814716;77;21042;-77
2021/01/11 06:25:56;;;;;;;56.35;33.53;;;;;;;0.90;73.94;101663.66;1814653;77;21459;-76
2021/01/11 06:28:35;;;;;;;51.92;31.02;;;;;;;0.91;73.88;101661.48;1814740;77;20923;-77
2021/01/11 06:31:13;;;;;;;51.48;31.45;;;;;;;0.93;73.81;101663.20;1814671;77;20943;-75
2021/01/11 06:33:42;;;;;;;53.58;30.92;;;;;;;0.95;73.71;101661.47;1814614;77;21404;-76
2021/01/11 06:36:26;;;;;;;49.53;31.50;;;;;;;0.98;73.78;101664.06;1814693;77;22202;-77
2021/01/11 06:38:54;;;;;;;48.75;30.30;;;;;;;1.01;73.77;101662.75;1814948;77;20974;-76
2021/01/11 06:41:28;;;;;;;55.78;30.65;;;;;;;1.06;73.69;101665.31;1814757;77;20919;-76
2021/01/11 06:44:07;;;;;;;52.38;31.07;;;;;;;1.11;73.57;101668.76;1814608;77;21022;-77
2021/01/11 06:46:43;;;;;;;54.18;31.70;;;;;;;1.13;73.46;101669.58;1814863;77;21512;-76
2021/01/11 06:49:30;;;;;;;54.23;31.85;;;;;;;1.15;73.49;101670.44;1814799;77;21150;-76
2021/01/11 06:52:08;;;;;;;56.33;31.25;;;;;;;1.17;73.40;101666.56;1814654;77;21006;-77
2021/01/11 06:54:38;;;;;;;52.60;32.38;;;;;;;1.12;73.61;101669.61;1814645;77;20958;-76
2021/01/11 06:57:10;;;;;;;60.60;32.78;;;;;;;1.08;73.73;101671.33;1814789;77;21542;-78
2021/01/11 06:59:38;;;;;;;54.10;31.60;;;;;;;1.09;73.90;101682.11;1843116;77;21486;-76
2021/01/11 07:02:22;;;;;;;58.98;35.13;;;;;;;1.12;73.94;101693.70;1814814;77;22128;-77
2021/01/11 07:04:51;;;;;;;62.27;33.63;;;;;;;1.16;73.98;101699.30;1814840;77;21076;-77
2021/01/11 07:07:24;;;;;;;60.23;33.48;;;;;;;1.15;74.08;101705.31;1814856;77;20954;-76
2021/01/11 07:09:57;;;;;;;55.73;32.65;;;;;;;1.14;74.19;101708.77;1843254;77;20915;-76
2021/01/11 07:12:26;;;;;;;52.45;31.30;;;;;;;1.15;74.32;101717.38;1814770;77;20974;-77
2021/01/11 07:15:06;;;;;;;46.73;29.63;;;;;;;1.11;74.61;101711.37;1814773;77;21240;-75
2021/01/11 07:17:41;;;;;;;48.50;28.65;;;;;;;1.11;74.77;101710.09;1814795;77;20939;-77
2021/01/11 07:20:13;;;;;;;43.00;25.95;;;;;;;1.10;74.92;101698.46;1815017;77;21002;-75
2021/01/11 07:22:43;;;;;;;43.78;25.17;;;;;;;1.07;75.06;101689.00;1815038;77;20950;-76
2021/01/11 07:25:27;;;;;;;40.88;26.17;;;;;;;1.07;75.29;101677.78;1815140;77;20950;-76
2021/01/11 07:29:08;;;;;;;40.98;24.87;;;;;;;1.18;75.52;101669.59;1846463;77;22577;-76
2021/01/11 07:31:42;;;;;;;34.55;23.27;;;;;;;1.18;75.53;101669.16;1817045;78;20972;-76
2021/01/11 07:34:13;;;;;;;40.70;24.07;;;;;;;1.27;75.39;101671.25;1794152;78;22157;-76
2021/01/11 07:36:47;;;;;;;38.63;24.07;;;;;;;1.32;75.17;101675.55;1793974;78;21019;-76
2021/01/11 07:39:19;;;;;;;40.30;23.83;;;;;;;1.39;75.01;101670.77;1793986;78;20963;-76
2021/01/11 07:41:50;;;;;;;38.23;23.90;;;;;;;1.44;74.72;101672.88;1794041;78;20948;-77
2021/01/11 07:44:24;;;;;;;38.65;23.35;;;;;;;1.46;74.77;101680.63;1794011;78;20949;-78
2021/01/11 07:49:33;;;;;;;38.02;23.35;;;;;;;1.56;74.59;101691.36;1793859;78;21016;-75
2021/01/11 07:52:21;;;;;;;39.95;23.52;;;;;;;1.62;74.29;101692.63;1793811;78;21023;-77
2021/01/11 07:54:46;;;;;;;35.80;23.70;;;;;;;1.71;73.97;101692.13;1793807;78;21079;-78
2021/01/11 07:57:15;;;;;;;36.83;23.57;;;;;;;1.75;73.88;101683.48;1823769;78;20928;-77
2021/01/11 07:59:43;;;;;;;38.63;25.17;;;;;;;1.78;73.80;101689.92;1793998;78;21397;-77
2021/01/11 08:02:14;;;;;;;39.40;25.32;;;;;;;1.80;73.77;101701.12;1793810;78;21003;-77
2021/01/11 08:04:43;;;;;;;39.40;24.92;;;;;;;;;;1794039;78;21065;-76
2021/01/11 08:07:12;;;;;;;39.10;25.20;;;;;;;1.89;73.67;101689.45;1793816;78;21000;-76
2021/01/11 08:09:41;;;;;;;44.25;27.52;;;;;;;1.93;73.52;101688.97;1823963;78;20959;-76
2021/01/11 08:12:15;;;;;;;42.33;25.25;;;;;;;2.01;73.40;101687.20;1793824;78;21497;-76
2021/01/11 08:14:44;;;;;;;40.08;26.35;;;;;;;2.10;73.23;101688.42;1793741;78;20994;-75
2021/01/11 08:17:25;;;;;;;39.15;25.77;;;;;;;2.18;73.20;101692.23;1793797;78;21038;-75
2021/01/11 08:19:58;;;;;;;36.30;23.65;;;;;;;2.23;73.11;101689.19;1793813;78;21042;-78
2021/01/11 08:22:29;;;;;;;38.00;25.52;;;;;;;2.31;72.85;101688.67;1794051;78;20959;-77
2021/01/11 08:24:58;;;;;;;40.00;24.60;;;;;;;2.33;72.59;101674.43;1793986;78;21002;-76
2021/01/11 08:27:43;;;;;;;39.23;26.50;;;;;;;2.36;72.43;101667.51;1823823;78;20955;-77
2021/01/11 08:30:16;;;;;;;;;;;;;;;2.40;72.27;101663.14;1799362;78;20995;-75
2021/01/11 08:32:43;;;;;;;43.78;26.02;;;;;;;2.40;72.03;101661.84;1796509;78;20231;-77
2021/01/11 08:35:13;;;;;;;42.65;26.62;;;;;;;2.38;71.93;101666.17;1796829;78;21043;-77
2021/01/11 08:37:44;;;;;;;39.95;26.25;;;;;;;2.36;71.82;101661.48;1797060;78;21175;-75
2021/01/11 08:40:17;;;;;;;37.60;24.75;;;;;;;2.33;72.05;101668.81;1797578;78;21015;-78
2021/01/11 08:42:47;;;;;;;38.08;25.12;;;;;;;2.34;72.13;101665.81;1798300;78;20944;-79
2021/01/11 08:45:40;;;;;;;37.15;26.30;;;;;;;2.40;72.04;101657.55;1797102;78;20952;-77
2021/01/11 08:48:11;;;;;;;32.65;22.07;;;;;;;2.53;71.75;101647.06;1796775;78;20960;-76
2021/01/11 08:50:53;;;;;;;32.23;20.97;;;;;;;2.63;71.35;101647.40;1797897;78;21781;-77
2021/01/11 08:53:29;;;;;;;35.17;22.32;;;;;;;2.66;70.48;101644.77;1797512;78;20963;-79
2021/01/11 08:56:04;;;;;;;31.97;20.97;;;;;;;2.63;70.01;101641.77;1792951;78;20956;-77
2021/01/11 08:58:32;;;;;;;34.63;22.30;;;;;;;2.56;69.69;101635.39;1797643;78;21031;-77
2021/01/11 09:01:17;;;;;;;33.42;23.73;;;;;;;2.44;69.60;101633.77;1797616;78;21028;-76
2021/01/11 09:03:53;;;;;;;36.08;23.05;;;;;;;2.34;69.54;101631.72;1796476;78;21419;-77
2021/01/11 09:06:47;;;;;;;32.90;22.52;;;;;;;2.25;69.72;101643.02;1796445;78;21509;-82
2021/01/11 09:09:18;;;;;;;39.20;24.93;;;;;;;2.21;70.23;101658.58;1796453;78;21386;-79
2021/01/11 09:11:48;;;;;;;42.13;25.05;;;;;;;2.22;70.31;101660.28;1796084;78;20944;-77
2021/01/11 09:14:18;;;;;;;35.58;22.42;;;;;;;2.25;70.29;101657.24;1796439;78;20963;-79
2021/01/11 09:16:47;;;;;;;35.65;22.42;;;;;;;2.30;70.60;101655.06;1796122;78;20984;-79
2021/01/11 09:19:19;;;;;;;38.95;24.23;;;;;;;2.33;71.16;101659.75;1796258;78;20963;-82
2021/01/11 09:22:17;;;;;;;34.55;24.02;;;;;;;2.39;70.76;101664.03;1823724;78;20935;-80
2021/01/11 09:24:45;;;;;;;37.38;24.02;;;;;;;2.44;70.79;101666.12;1768916;80;21408;-82
2021/01/11 09:27:13;;;;;;;43.85;25.40;;;;;;;2.41;70.81;101668.76;1767962;80;21135;-81
2021/01/11 09:29:40;;;;;;;37.00;22.40;;;;;;;2.44;70.80;101670.02;1763775;80;21177;-80
2021/01/11 09:32:08;;;;;;;31.87;21.93;;;;;;;2.49;71.06;101662.64;1763596;80;20934;-81
2021/01/11 09:34:36;;;;;;;34.63;21.82;;;;;;;2.51;70.67;101659.16;1763767;80;20978;-79
2021/01/11 09:37:13;;;;;;;26.52;18.45;;;;;;;2.48;70.48;101666.08;1763702;80;20954;-80
2021/01/11 09:39:41;;;;;;;31.20;15.75;;;;;;;2.44;69.88;101671.30;1763741;80;21439;-78
2021/01/11 09:42:10;;;;;;;20.32;14.65;;;;;;;2.38;69.63;101664.47;1763581;80;21149;-86
2021/01/11 09:44:38;;;;;;;19.75;14.30;;;;;;;2.34;69.25;101658.89;1763664;80;21345;-81
2021/01/11 09:47:07;;;;;;;21.75;13.70;;;;;;;2.31;68.74;101664.08;1763198;80;20998;-80
2021/01/11 09:49:36;;;;;;;21.45;12.95;;;;;;;2.22;68.94;101653.41;1787196;78;20932;-81
2021/01/11 09:52:05;;;;;;;14.93;10.03;;;;;;;2.23;68.74;101645.20;1798184;78;21065;-81
2021/01/11 09:54:32;;;;;;;15.18;9.38;;;;;;;2.20;68.01;101639.62;1799120;78;21187;-79
2021/01/11 09:57:01;;;;;;;13.90;8.45;;;;;;;2.20;66.88;101633.15;1796573;78;20991;-82
2021/01/11 09:59:31;;;;;;;13.60;8.45;;;;;;;2.14;66.37;101632.34;1796769;78;20988;-80
2021/01/11 10:01:59;;;;;;;14.75;10.65;;;;;;;2.12;66.44;101624.58;1796401;78;20906;-79
2021/01/11 10:04:28;;;;;;;12.55;8.63;;;;;;;2.13;66.24;101609.47;1796204;78;21537;-78
2021/01/11 10:06:58;;;;;;;11.25;7.85;;;;;;;2.21;65.70;101610.27;1792241;78;21251;-78
2021/01/11 10:09:29;;;;;;;13.38;8.28;;;;;;;2.25;65.32;101608.08;1796355;78;21117;-78
2021/01/11 10:12:03;;;;;;;11.88;8.60;;;;;;;2.25;65.19;101610.66;1796461;78;20913;-77
2021/01/11 10:14:34;;;;;;;15.58;10.03;;;;;;;2.21;65.50;101615.44;1796428;78;20999;-81
2021/01/11 10:17:02;;;;;;;20.40;10.15;;;;;;;2.21;65.49;101614.14;1796478;78;20991;-80
2021/01/11 10:19:30;;;;;;;14.20;9.08;;;;;;;2.19;64.97;101604.24;1796444;78;21590;-81
2021/01/11 10:22:02;;;;;;;13.83;9.60;;;;;;;2.19;65.36;101609.42;1796387;78;20951;-80
2021/01/11 10:24:30;;;;;;;15.58;10.23;;;;;;;2.19;64.96;101609.86;1796521;78;21059;-82
2021/01/11 10:27:00;;;;;;;18.42;11.00;;;;;;;2.18;64.88;101606.42;1796107;78;21512;-78
2021/01/11 10:29:32;;;;;;;20.72;12.60;;;;;;;2.21;64.63;101606.38;1783598;79;21020;-82
2021/01/11 10:31:57;;;;;;;21.80;13.98;;;;;;;2.26;64.74;101606.34;1782466;79;22547;-76
2021/01/11 10:34:26;;;;;;;18.87;10.82;;;;;;;2.22;64.62;101605.53;1782749;79;20966;-80
2021/01/11 10:36:55;;;;;;;15.03;10.75;;;;;;;2.22;64.33;101615.00;1782949;79;20968;-79
2021/01/11 10:39:26;;;;;;;14.50;9.33;;;;;;;2.23;64.27;101613.70;1815029;78;21359;-80
2021/01/11 10:41:56;;;;;;;15.85;8.53;;;;;;;2.20;64.28;101618.03;1782775;78;20940;-80
2021/01/11 10:44:25;;;;;;;10.53;6.37;;;;;;;2.23;64.32;101624.05;1814920;79;21273;-82
2021/01/11 10:46:54;;;;;;;7.97;5.47;;;;;;;2.25;63.25;101620.16;1782995;79;21049;-84
2021/01/11 10:49:22;;;;;;;6.83;5.40;;;;;;;2.31;62.56;101616.64;1782937;79;21133;-83
2021/01/11 10:51:50;;;;;;;8.48;5.60;;;;;;;2.35;62.53;101610.56;1782789;79;21067;-82
2021/01/11 10:54:19;;;;;;;7.62;5.97;;;;;;;2.42;62.46;101612.22;1782899;79;20953;-83
2021/01/11 10:56:50;;;;;;;9.83;7.08;;;;;;;2.44;62.67;101616.94;1783088;79;21004;-82
2021/01/11 10:59:20;;;;;;;11.35;7.75;;;;;;;2.41;62.66;101622.16;1782802;79;20940;-84
2021/01/11 11:01:50;;;;;;;10.32;7.00;;;;;;;2.39;62.69;101624.76;1782872;79;21027;-84
2021/01/11 11:04:18;;;;;;;11.30;7.50;;;;;;;2.33;63.22;101626.55;1782877;79;21510;-82
2021/01/11 11:06:46;;;;;;;10.78;7.28;;;;;;;2.36;63.34;101623.50;1782996;79;20944;-81
2021/01/11 11:09:14;;;;;;;9.75;7.10;;;;;;;2.35;63.05;101632.56;1814706;79;22346;-81
2021/01/11 11:11:42;;;;;;;10.82;7.65;;;;;;;2.34;63.37;101641.22;1782769;79;21576;-83
2021/01/11 11:14:10;;;;;;;10.18;7.22;;;;;;;2.29;63.10;101636.09;1782886;79;21059;-83
2021/01/11 11:16:39;;;;;;;11.80;7.75;;;;;;;2.19;63.16;101633.16;1782836;79;21398;-84
2021/01/11 11:19:07;;;;;;;14.73;8.15;;;;;;;2.13;63.20;101630.17;1783180;79;21362;-82
2021/01/11 11:21:35;;;;;;;12.37;9.25;;;;;;;2.11;63.71;101628.47;1782807;79;21176;-80
2021/01/11 11:24:06;;;;;;;13.03;8.68;;;;;;;2.11;63.68;101632.34;1780553;79;21024;-82
2021/01/11 11:26:34;;;;;;;13.13;8.50;;;;;;;2.07;63.76;101636.27;1782895;79;20964;-82
2021/01/11 11:29:02;;;;;;;12.78;8.95;;;;;;;2.08;63.69;101628.06;1782518;79;21572;-83
2021/01/11 11:31:33;;;;;;;13.45;9.70;;;;;;;2.04;63.62;101626.37;1782879;79;20972;-81
2021/01/11 11:34:03;;;;;;;14.20;10.23;;;;;;;2.02;64.06;101621.23;1814163;79;21560;-83
2021/01/11 11:36:31;;;;;;;12.90;9.90;;;;;;;1.98;64.80;101623.83;1782595;79;21016;-81
2021/01/11 11:39:01;;;;;;;11.88;9.13;;;;;;;1.94;65.00;101626.05;1782836;79;20975;-83
2021/01/11 11:41:29;;;;;;;14.13;9.98;;;;;;;1.91;65.57;101626.05;1781380;79;20969;-82